Rechercher aéroport 
image banner adimage banner adimage banner ad
image banner ad

30CA - Indian Valley Hospital

Situé à Greenville, United States

ICAO - 30CA, IATA -

Données fournies par Airmate  

Information générale

Coordonnées: N40°8'29" W120°56'14"
Élévation : 3482 feet MSL.
Variation magnétique : 17° East
Voir autres Aéroports à California

Données opérationnelles

Special qualification required
Heure actuelle UTC:
Heure actuelle locale:
Météo à : KSVE - Susanville Muni ( 40 km )
METAR: KSVE 251215Z AUTO 27003KT 5SM HZ CLR 19/03 A3009 RMK AO2
Voir NOTAMs / SUP AIP / TFR affectant cet aéroport [VIEW]
Fréquences de communication: [VIEW]

Pistes:

Coordonnées de l'aéroport

Adresse: Greenville United States

Vue satellite de 30CA